Time;durP1;ratioP1;P1;durP2;ratioP2;P2;SDS_P1;SDS_P2;PMS_P1;PMS_P2;Temp;Humidity;BMP_temperature;BMP_pressure;BME280_temperature;BME280_humidity;BME280_pressure;Samples;Min_cycle;Max_cycle;Signal;HPM_P1;HPM_P2
2021/09/17 00:01:26;;;;;;;24.75;18.02;;;11.40;99.90;;;;;;5087098;28;20168;-88
2021/09/17 00:04:13;;;;;;;25.60;19.23;;;11.30;99.90;;;;;;5087458;28;20076;-89
2021/09/17 00:07:01;;;;;;;34.60;21.58;;;11.30;99.90;;;;;;5089017;28;20067;-89
2021/09/17 00:09:49;;;;;;;37.50;23.83;;;11.40;99.90;;;;;;5061454;28;20052;-89
2021/09/17 00:12:36;;;;;;;34.63;23.00;;;11.50;99.90;;;;;;5079967;28;20360;-90
2021/09/17 00:15:24;;;;;;;35.40;23.25;;;11.60;99.90;;;;;;5088130;28;20067;-89
2021/09/17 00:18:12;;;;;;;30.40;21.23;;;11.60;99.90;;;;;;5078030;28;20048;-89
2021/09/17 00:21:00;;;;;;;25.02;18.35;;;11.60;99.90;;;;;;5073040;28;20040;-90
2021/09/17 00:23:47;;;;;;;27.63;18.15;;;11.60;99.90;;;;;;5065312;28;20055;-88
2021/09/17 00:26:36;;;;;;;24.65;18.02;;;11.60;99.90;;;;;;5078492;28;20068;-89
2021/09/17 00:29:23;;;;;;;27.60;17.00;;;11.60;99.90;;;;;;5080430;28;20051;-90
2021/09/17 00:32:11;;;;;;;17.27;15.27;;;11.60;99.90;;;;;;5079128;28;20047;-90
2021/09/17 00:34:59;;;;;;;22.98;15.88;;;11.60;99.90;;;;;;5094585;28;20055;-89
2021/09/17 00:37:47;;;;;;;22.65;16.77;;;11.70;99.90;;;;;;5088001;28;20051;-88
2021/09/17 00:40:34;;;;;;;25.35;15.75;;;11.70;99.90;;;;;;5078626;28;20151;-88
2021/09/17 00:43:21;;;;;;;23.60;16.40;;;11.70;99.90;;;;;;5094706;28;20052;-89
2021/09/17 00:46:11;;;;;;;21.10;15.35;;;11.70;99.90;;;;;;5082638;28;20442;-88
2021/09/17 00:48:59;;;;;;;22.73;16.02;;;11.80;99.90;;;;;;5095614;28;20044;-90
2021/09/17 00:51:48;;;;;;;20.63;16.45;;;11.90;99.90;;;;;;5078514;28;20134;-90
2021/09/17 00:54:35;;;;;;;20.45;16.77;;;11.90;99.90;;;;;;5079170;28;20044;-90
2021/09/17 00:57:23;;;;;;;26.77;18.23;;;11.90;99.90;;;;;;5088061;28;20094;-89
2021/09/17 01:00:13;;;;;;;25.77;17.65;;;12.00;99.90;;;;;;5086853;28;20048;-90
2021/09/17 01:03:01;;;;;;;23.92;16.05;;;12.00;99.90;;;;;;5101924;28;20047;-90
2021/09/17 01:05:48;;;;;;;24.17;17.27;;;12.00;99.90;;;;;;5064404;28;20112;-90
2021/09/17 01:08:37;;;;;;;25.17;17.42;;;12.10;99.90;;;;;;5079660;28;20041;-91
2021/09/17 01:11:25;;;;;;;21.30;16.88;;;12.10;99.90;;;;;;5085805;28;20028;-90
2021/09/17 01:14:13;;;;;;;19.98;15.02;;;12.10;99.90;;;;;;5105981;28;20050;-89
2021/09/17 01:17:02;;;;;;;20.70;15.88;;;12.10;99.90;;;;;;5110542;28;20032;-89
2021/09/17 01:19:49;;;;;;;20.25;15.75;;;12.10;99.90;;;;;;5110929;28;20431;-90
2021/09/17 01:22:40;;;;;;;28.25;16.05;;;12.10;99.90;;;;;;5090030;28;20066;-90
2021/09/17 01:25:28;;;;;;;21.65;16.85;;;12.00;99.90;;;;;;5083048;28;20041;-90
2021/09/17 01:28:30;;;;;;;25.17;15.25;;;12.10;99.90;;;;;;5088130;28;20041;-90
2021/09/17 01:31:18;;;;;;;24.80;16.30;;;12.10;99.90;;;;;;5091897;28;20131;-89
2021/09/17 01:34:08;;;;;;;19.42;15.68;;;12.10;99.90;;;;;;5080396;28;20048;-90
2021/09/17 01:36:56;;;;;;;21.33;15.05;;;12.10;99.90;;;;;;5087628;28;20055;-88
2021/09/17 01:39:44;;;;;;;21.92;15.80;;;12.10;99.90;;;;;;5082669;28;20051;-92
2021/09/17 01:42:31;;;;;;;24.00;16.20;;;12.10;99.90;;;;;;5084524;28;20067;-89
2021/09/17 01:45:22;;;;;;;20.80;15.13;;;12.10;99.90;;;;;;5075375;28;20396;-90
2021/09/17 01:48:10;;;;;;;21.90;16.35;;;12.20;99.90;;;;;;5067481;28;20074;-89
2021/09/17 01:50:58;;;;;;;24.35;15.70;;;12.20;99.90;;;;;;5080553;28;20091;-91
2021/09/17 01:53:45;;;;;;;21.13;15.27;;;12.20;99.90;;;;;;5065864;28;20049;-90
2021/09/17 01:56:34;;;;;;;20.58;15.02;;;12.30;99.90;;;;;;5061885;28;20073;-91
2021/09/17 01:59:21;;;;;;;20.73;14.95;;;12.30;99.90;;;;;;5093599;28;20074;-91
2021/09/17 02:02:09;;;;;;;21.52;14.45;;;12.30;99.90;;;;;;5092460;28;20432;-90
2021/09/17 02:04:57;;;;;;;16.23;14.50;;;12.30;99.90;;;;;;5053171;28;20595;-89
2021/09/17 02:07:44;;;;;;;16.77;12.85;;;12.30;99.90;;;;;;5076623;28;20047;-90
2021/09/17 02:10:32;;;;;;;20.08;13.15;;;12.40;99.90;;;;;;5078661;28;20637;-90
2021/09/17 02:13:24;;;;;;;18.10;14.57;;;12.40;99.90;;;;;;5077083;28;20445;-89
2021/09/17 02:16:13;;;;;;;15.88;13.55;;;12.40;99.90;;;;;;5077441;28;20130;-90
2021/09/17 02:19:02;;;;;;;17.27;13.35;;;12.40;99.90;;;;;;5092793;28;20070;-89
2021/09/17 02:21:54;;;;;;;18.42;13.05;;;12.40;99.90;;;;;;5085504;28;20047;-90
2021/09/17 02:24:42;;;;;;;16.17;12.68;;;12.40;99.90;;;;;;5090920;28;20059;-89
2021/09/17 02:27:29;;;;;;;16.35;12.35;;;12.40;99.90;;;;;;5074634;28;20048;-90
2021/09/17 02:30:17;;;;;;;16.27;12.50;;;12.40;99.90;;;;;;5088020;28;20044;-89
2021/09/17 02:33:05;;;;;;;18.73;12.80;;;12.40;99.90;;;;;;5050052;28;20468;-90
2021/09/17 02:35:53;;;;;;;18.65;13.45;;;12.40;99.90;;;;;;5050613;28;20040;-88
2021/09/17 02:38:41;;;;;;;18.15;13.00;;;12.40;99.90;;;;;;5071478;28;20140;-87
2021/09/17 02:41:28;;;;;;;17.63;12.70;;;12.40;99.90;;;;;;5075880;28;20063;-89
2021/09/17 02:44:16;;;;;;;16.10;12.18;;;12.40;99.90;;;;;;5073803;28;20051;-88
2021/09/17 02:47:04;;;;;;;20.73;13.07;;;12.30;99.90;;;;;;5084769;28;20121;-89
2021/09/17 02:49:51;;;;;;;14.48;12.23;;;12.30;99.90;;;;;;5085515;28;20055;-90
2021/09/17 02:52:39;;;;;;;16.25;12.85;;;12.30;99.90;;;;;;5058866;28;20059;-88
2021/09/17 02:55:26;;;;;;;14.40;12.90;;;12.20;99.90;;;;;;5061778;28;20055;-90
2021/09/17 02:58:16;;;;;;;14.23;12.73;;;12.20;99.90;;;;;;5086596;28;20043;-89
2021/09/17 03:01:08;;;;;;;13.00;11.45;;;12.20;99.90;;;;;;5077583;28;20056;-89
2021/09/17 03:03:56;;;;;;;16.17;12.90;;;12.20;99.90;;;;;;5059318;28;20051;-88
2021/09/17 03:06:43;;;;;;;20.85;12.48;;;12.20;99.90;;;;;;5084053;28;20051;-88
2021/09/17 03:09:33;;;;;;;15.07;13.30;;;12.20;99.90;;;;;;5064021;28;20067;-89
2021/09/17 03:12:21;;;;;;;17.63;12.75;;;12.30;99.90;;;;;;5070410;28;20044;-89
2021/09/17 03:15:09;;;;;;;17.10;12.52;;;12.20;99.90;;;;;;5089893;28;20079;-89
2021/09/17 03:17:57;;;;;;;18.88;14.00;;;12.30;99.90;;;;;;5087246;28;20054;-89
2021/09/17 03:20:47;;;;;;;16.42;13.65;;;12.30;99.90;;;;;;5081057;28;20036;-88
2021/09/17 03:23:34;;;;;;;17.13;14.65;;;12.30;99.90;;;;;;5072407;28;20047;-89
2021/09/17 03:26:22;;;;;;;18.77;13.13;;;12.30;99.90;;;;;;5053553;28;20064;-89
2021/09/17 03:29:09;;;;;;;14.98;12.15;;;12.30;99.90;;;;;;5076983;28;20059;-90
2021/09/17 03:31:57;;;;;;;15.80;12.68;;;12.30;99.90;;;;;;5094570;28;20047;-89
2021/09/17 03:34:46;;;;;;;14.77;12.18;;;12.30;99.90;;;;;;5075569;28;20049;-89
2021/09/17 03:37:35;;;;;;;18.05;12.52;;;12.40;99.90;;;;;;5074892;28;20040;-89
2021/09/17 03:40:25;;;;;;;16.85;11.90;;;12.30;99.90;;;;;;5088035;28;20055;-91
2021/09/17 03:43:15;;;;;;;13.70;11.23;;;12.40;99.90;;;;;;5094684;28;20032;-89
2021/09/17 03:46:02;;;;;;;13.10;10.93;;;12.40;99.90;;;;;;5095993;28;20048;-90
2021/09/17 03:48:50;;;;;;;14.55;10.50;;;12.40;99.90;;;;;;5107774;28;20032;-88
2021/09/17 03:51:40;;;;;;;15.30;10.68;;;12.30;99.90;;;;;;5073427;28;20048;-90
2021/09/17 03:54:27;;;;;;;12.90;10.63;;;12.30;99.90;;;;;;5075627;28;20055;-88
2021/09/17 03:57:15;;;;;;;11.80;9.73;;;12.40;99.90;;;;;;5067275;28;20047;-89
2021/09/17 04:00:05;;;;;;;12.60;9.48;;;12.40;99.90;;;;;;5082435;28;20036;-90
2021/09/17 04:03:27;;;;;;;10.57;8.80;;;12.40;99.90;;;;;;5090266;28;20048;-91
2021/09/17 04:06:30;;;;;;;10.55;9.45;;;12.40;99.90;;;;;;5105856;28;20107;-88
2021/09/17 04:09:31;;;;;;;13.27;10.38;;;12.30;99.90;;;;;;5058094;28;20044;-89
2021/09/17 04:12:19;;;;;;;11.77;9.57;;;12.30;99.90;;;;;;5086289;28;20052;-89
2021/09/17 04:15:07;;;;;;;11.45;9.80;;;12.30;99.90;;;;;;5070904;28;20143;-90
2021/09/17 04:17:57;;;;;;;11.02;9.30;;;12.30;99.90;;;;;;5064760;28;20044;-88
2021/09/17 04:20:44;;;;;;;11.73;9.75;;;12.30;99.90;;;;;;5054191;28;20054;-90
2021/09/17 04:23:33;;;;;;;12.45;9.40;;;12.20;99.90;;;;;;5062179;28;20051;-90
2021/09/17 04:26:22;;;;;;;13.77;9.82;;;12.30;99.90;;;;;;5092588;28;20040;-90
2021/09/17 04:29:23;;;;;;;14.15;9.77;;;12.30;99.90;;;;;;5107940;28;20046;-88
2021/09/17 04:32:12;;;;;;;11.50;9.05;;;12.30;99.90;;;;;;5105176;28;20095;-89
2021/09/17 04:35:03;;;;;;;14.60;9.30;;;12.30;99.90;;;;;;5079010;28;20453;-90
2021/09/17 04:37:56;;;;;;;10.02;8.70;;;12.30;99.90;;;;;;5088529;28;20040;-88
2021/09/17 04:40:44;;;;;;;12.85;9.23;;;12.40;99.90;;;;;;5083117;28;20044;-90
2021/09/17 04:43:31;;;;;;;12.73;10.43;;;12.30;99.90;;;;;;5097442;28;20047;-90
2021/09/17 04:46:18;;;;;;;13.75;9.68;;;12.30;99.90;;;;;;5098459;28;20109;-90
2021/09/17 04:49:08;;;;;;;15.25;10.50;;;12.30;99.90;;;;;;5083759;28;20465;-92
2021/09/17 04:51:55;;;;;;;15.27;10.55;;;12.30;99.90;;;;;;5099249;28;20070;-91
2021/09/17 04:54:43;;;;;;;10.60;9.50;;;12.30;99.90;;;;;;5068012;28;20044;-92
2021/09/17 04:57:31;;;;;;;16.25;10.82;;;12.30;99.90;;;;;;5075181;28;20558;-91
2021/09/17 05:00:18;;;;;;;11.52;10.02;;;12.30;99.90;;;;;;5097934;28;20052;-91
2021/09/17 05:03:06;;;;;;;14.48;11.30;;;12.30;99.90;;;;;;5086038;28;20458;-91
2021/09/17 05:05:55;;;;;;;17.23;11.05;;;12.20;99.90;;;;;;5082091;28;20036;-91
2021/09/17 05:08:45;;;;;;;15.55;10.77;;;12.20;99.90;;;;;;5072206;28;20044;-90
2021/09/17 05:11:32;;;;;;;22.17;11.45;;;12.20;99.90;;;;;;5055750;28;20044;-89
2021/09/17 05:14:19;;;;;;;11.75;9.93;;;12.20;99.90;;;;;;5096582;28;20048;-88
2021/09/17 05:17:07;;;;;;;14.00;10.95;;;12.20;99.90;;;;;;5053949;28;20045;-91
2021/09/17 05:20:00;;;;;;;19.90;11.48;;;12.20;99.90;;;;;;5053860;28;20481;-91
2021/09/17 05:22:48;;;;;;;15.40;12.00;;;12.10;99.90;;;;;;5094397;28;20055;-92
2021/09/17 05:25:36;;;;;;;14.73;11.75;;;12.10;99.90;;;;;;5068810;28;20044;-91
2021/09/17 05:28:24;;;;;;;12.55;10.82;;;12.00;99.90;;;;;;5073781;28;20050;-92
2021/09/17 05:31:11;;;;;;;15.93;11.85;;;12.00;99.90;;;;;;5081812;28;20464;-92
2021/09/17 05:34:02;;;;;;;15.32;10.77;;;12.00;99.90;;;;;;5082153;28;20048;-92
2021/09/17 05:37:24;;;;;;;13.32;10.07;;;12.00;99.90;;;;;;5027931;28;20061;-88
2021/09/17 05:40:14;;;;;;;12.50;11.05;;;12.00;99.90;;;;;;4996747;28;20057;-93
2021/09/17 05:43:10;;;;;;;16.23;10.35;;;11.90;99.90;;;;;;5015995;28;20065;-93
2021/09/17 05:45:58;;;;;;;14.43;11.38;;;11.90;99.90;;;;;;5015333;28;20092;-90
2021/09/17 05:48:51;;;;;;;13.57;11.25;;;11.90;99.90;;;;;;4991136;28;20053;-91
2021/09/17 05:51:41;;;;;;;19.00;12.55;;;11.90;99.90;;;;;;5014549;28;20073;-91
2021/09/17 05:54:32;;;;;;;22.55;12.38;;;12.00;99.90;;;;;;5003216;28;20050;-89
2021/09/17 05:57:19;;;;;;;20.38;13.13;;;12.10;99.90;;;;;;4985737;28;20068;-88
2021/09/17 06:00:09;;;;;;;17.40;12.40;;;12.10;99.90;;;;;;5030813;28;20049;-89
2021/09/17 06:02:58;;;;;;;15.48;13.00;;;12.20;99.90;;;;;;5022472;28;20068;-88
2021/09/17 06:05:47;;;;;;;16.15;12.40;;;12.30;99.90;;;;;;5019309;28;20071;-90
2021/09/17 06:08:35;;;;;;;16.52;13.82;;;12.40;99.90;;;;;;5059584;28;20392;-89
2021/09/17 06:11:22;;;;;;;14.85;11.50;;;12.60;99.90;;;;;;5074123;28;20416;-88
2021/09/17 06:14:10;;;;;;;13.23;10.73;;;12.80;99.90;;;;;;5063232;28;20111;-89
2021/09/17 06:16:57;;;;;;;19.83;10.45;;;12.90;99.90;;;;;;5067634;28;20120;-90
2021/09/17 06:19:45;;;;;;;10.95;9.68;;;13.10;99.90;;;;;;5087421;28;20051;-90
2021/09/17 06:22:33;;;;;;;13.48;9.95;;;13.20;99.90;;;;;;5048989;28;20064;-88
2021/09/17 06:25:22;;;;;;;11.77;10.02;;;13.40;99.90;;;;;;5061770;28;20067;-90
2021/09/17 06:28:09;;;;;;;17.73;10.27;;;13.50;99.90;;;;;;5068590;28;20055;-90
2021/09/17 06:30:57;;;;;;;11.48;9.23;;;13.70;99.90;;;;;;5075391;28;20051;-90
2021/09/17 06:33:45;;;;;;;11.63;9.38;;;13.90;99.90;;;;;;5075039;28;20064;-89
2021/09/17 06:36:32;;;;;;;15.40;9.15;;;14.00;99.90;;;;;;5075613;28;20067;-89
2021/09/17 06:39:22;;;;;;;13.52;7.68;;;14.00;99.90;;;;;;5072963;28;20055;-90
2021/09/17 06:42:09;;;;;;;12.20;8.18;;;14.00;99.90;;;;;;5069368;28;20052;-89
2021/09/17 06:44:58;;;;;;;11.70;8.40;;;14.10;99.90;;;;;;5088921;28;20059;-90
2021/09/17 06:47:54;;;;;;;10.45;9.32;;;14.00;99.90;;;;;;5092626;28;20527;-91
2021/09/17 06:50:46;;;;;;;13.65;8.60;;;14.00;99.90;;;;;;5078236;28;20052;-90
2021/09/17 06:53:34;;;;;;;10.25;8.43;;;14.10;99.90;;;;;;5055443;28;20047;-88
2021/09/17 06:56:22;;;;;;;10.55;8.35;;;14.10;99.90;;;;;;5062638;28;20060;-89
2021/09/17 06:59:10;;;;;;;13.52;8.57;;;14.10;99.90;;;;;;5080962;28;20058;-89
2021/09/17 07:01:58;;;;;;;11.00;9.50;;;14.10;99.90;;;;;;5063033;28;20056;-90
2021/09/17 07:04:48;;;;;;;22.35;13.63;;;14.10;99.90;;;;;;5039116;28;20049;-89
2021/09/17 07:07:37;;;;;;;15.25;10.45;;;14.30;99.90;;;;;;5039303;28;20049;-89
2021/09/17 07:10:25;;;;;;;13.15;10.63;;;14.30;99.90;;;;;;5062765;28;20060;-88
2021/09/17 07:13:14;;;;;;;12.35;9.07;;;14.40;99.90;;;;;;5027791;28;20049;-88
2021/09/17 07:16:02;;;;;;;13.13;10.27;;;14.60;99.90;;;;;;5037439;28;20041;-89
2021/09/17 07:18:50;;;;;;;13.35;9.82;;;14.70;99.90;;;;;;5037586;28;20108;-89
2021/09/17 07:21:38;;;;;;;15.45;10.60;;;14.80;99.90;;;;;;5039466;28;20046;-88
2021/09/17 07:24:25;;;;;;;13.60;9.77;;;14.90;99.90;;;;;;5040462;28;20453;-87
2021/09/17 07:27:13;;;;;;;15.10;9.52;;;15.10;99.90;;;;;;5059593;28;20053;-88
2021/09/17 07:30:00;;;;;;;12.00;10.25;;;15.20;99.90;;;;;;5060546;28;20152;-87
2021/09/17 07:32:48;;;;;;;17.35;10.63;;;15.40;99.90;;;;;;5061501;28;20049;-90
2021/09/17 07:35:39;;;;;;;15.18;9.45;;;15.40;99.90;;;;;;5015105;28;20049;-88
2021/09/17 07:38:27;;;;;;;15.95;10.93;;;15.60;99.90;;;;;;5014007;28;20058;-87
2021/09/17 07:41:15;;;;;;;15.82;11.35;;;15.70;99.90;;;;;;5066063;28;20047;-89
2021/09/17 07:44:03;;;;;;;12.38;10.77;;;15.80;99.90;;;;;;5045375;28;20033;-89
2021/09/17 07:46:53;;;;;;;20.40;12.88;;;15.80;99.90;;;;;;5011433;28;20049;-88
2021/09/17 07:49:41;;;;;;;18.80;13.20;;;16.00;99.90;;;;;;5020532;28;20092;-87
2021/09/17 07:52:28;;;;;;;20.38;14.68;;;16.10;99.90;;;;;;5021190;28;20061;-88
2021/09/17 07:55:19;;;;;;;18.15;13.98;;;16.10;99.90;;;;;;5021526;28;20049;-87
2021/09/17 07:58:06;;;;;;;17.15;14.27;;;16.20;99.90;;;;;;5034155;28;20130;-88
2021/09/17 08:00:56;;;;;;;18.60;14.48;;;16.60;99.90;;;;;;5057973;28;20176;-88
2021/09/17 08:03:43;;;;;;;16.50;13.70;;;16.60;99.90;;;;;;5073410;28;20044;-90
2021/09/17 08:06:31;;;;;;;17.10;11.93;;;16.70;99.90;;;;;;5057198;28;20045;-88
2021/09/17 08:09:19;;;;;;;12.98;10.43;;;16.80;99.90;;;;;;5060132;28;20339;-90
2021/09/17 08:12:07;;;;;;;14.38;11.45;;;17.00;99.90;;;;;;5029798;28;20475;-89
2021/09/17 08:14:54;;;;;;;13.45;11.57;;;17.40;99.90;;;;;;5056752;28;20041;-89
2021/09/17 08:17:44;;;;;;;12.30;10.52;;;17.60;99.90;;;;;;5076081;28;20088;-88
2021/09/17 08:20:33;;;;;;;13.07;10.65;;;18.10;99.90;;;;;;5065579;28;20044;-90
2021/09/17 08:23:22;;;;;;;13.88;11.20;;;18.20;99.90;;;;;;5077926;28;20067;-89
2021/09/17 08:26:09;;;;;;;16.33;10.50;;;18.40;99.90;;;;;;5078292;28;20051;-90
2021/09/17 08:28:57;;;;;;;15.82;8.93;;;18.60;99.90;;;;;;5065412;28;20048;-89
2021/09/17 08:31:45;;;;;;;16.55;10.82;;;18.80;99.90;;;;;;5058519;28;20045;-90
2021/09/17 08:34:33;;;;;;;12.52;10.10;;;18.80;99.90;;;;;;5052061;28;20037;-89
2021/09/17 08:37:23;;;;;;;14.02;9.45;;;18.80;99.90;;;;;;5058984;28;20152;-89
2021/09/17 08:40:14;;;;;;;13.73;9.98;;;18.60;99.90;;;;;;5093176;28;20117;-88
2021/09/17 08:43:02;;;;;;;10.98;9.70;;;18.40;99.90;;;;;;5104835;28;20039;-88
2021/09/17 08:45:53;;;;;;;10.43;8.90;;;18.40;99.90;;;;;;5071800;28;20041;-88
2021/09/17 08:48:42;;;;;;;11.00;9.55;;;18.70;99.90;;;;;;5072211;28;20045;-88
2021/09/17 08:51:29;;;;;;;11.15;9.02;;;18.90;99.90;;;;;;5075323;28;20108;-87
2021/09/17 08:54:18;;;;;;;10.20;8.35;;;18.80;99.90;;;;;;5059259;28;20049;-88
2021/09/17 08:57:06;;;;;;;9.68;8.50;;;18.90;99.90;;;;;;5072645;28;20033;-87
2021/09/17 08:59:54;;;;;;;13.10;7.85;;;18.80;99.90;;;;;;5056112;28;20068;-88
2021/09/17 09:02:46;;;;;;;13.65;9.30;;;18.90;99.90;;;;;;5052358;28;20061;-88
2021/09/17 09:05:35;;;;;;;12.65;8.68;;;18.70;99.90;;;;;;5046895;28;20327;-90
2021/09/17 09:08:26;;;;;;;12.35;7.57;;;18.70;99.90;;;;;;5065839;28;20044;-89
2021/09/17 09:11:17;;;;;;;10.05;7.88;;;18.80;99.90;;;;;;5059936;28;20146;-89
2021/09/17 09:14:11;;;;;;;11.23;7.38;;;18.60;99.90;;;;;;5058397;28;20041;-89
2021/09/17 09:17:04;;;;;;;9.55;6.63;;;18.60;99.90;;;;;;5068445;28;20052;-88
2021/09/17 09:19:51;;;;;;;5.28;4.78;;;18.70;99.90;;;;;;5033639;28;20067;-89
2021/09/17 09:22:40;;;;;;;4.35;3.95;;;18.80;99.90;;;;;;5073409;28;20045;-88
2021/09/17 09:25:28;;;;;;;7.20;6.50;;;19.00;99.90;;;;;;5037090;28;20187;-89
2021/09/17 09:28:21;;;;;;;6.93;6.20;;;19.30;99.90;;;;;;5055343;28;20368;-88
2021/09/17 09:31:15;;;;;;;7.30;5.97;;;19.50;99.90;;;;;;5039852;28;20485;-88
2021/09/17 09:34:02;;;;;;;6.93;5.93;;;19.60;99.90;;;;;;5052459;28;20063;-88
2021/09/17 09:37:09;;;;;;;7.80;6.18;;;20.10;99.90;;;;;;5065900;28;20092;-89
2021/09/17 09:39:59;;;;;;;7.18;5.60;;;20.40;99.90;;;;;;5084712;28;20055;-89
2021/09/17 09:42:48;;;;;;;7.20;5.97;;;20.60;99.90;;;;;;5081036;28;20132;-89
2021/09/17 09:45:39;;;;;;;7.18;6.22;;;20.40;97.70;;;;;;5037306;28;20127;-87
2021/09/17 09:48:27;;;;;;;6.93;6.05;;;20.40;98.50;;;;;;5071264;28;20051;-88
2021/09/17 09:51:14;;;;;;;7.55;4.88;;;20.20;97.50;;;;;;5058048;28;20052;-87
2021/09/17 09:54:04;;;;;;;7.15;4.95;;;20.30;97.40;;;;;;5059799;28;20080;-87
2021/09/17 09:56:52;;;;;;;5.82;4.20;;;20.50;94.50;;;;;;5070525;28;20067;-89
2021/09/17 09:59:40;;;;;;;4.82;4.07;;;20.80;93.40;;;;;;5059553;28;20511;-87
2021/09/17 10:02:28;;;;;;;4.07;3.25;;;20.70;92.20;;;;;;5072373;28;20071;-88
2021/09/17 10:05:22;;;;;;;5.07;3.75;;;20.90;92.50;;;;;;5059439;28;20063;-88
2021/09/17 10:08:11;;;;;;;6.65;4.53;;;21.20;90.90;;;;;;5046375;28;20369;-88
2021/09/17 10:11:01;;;;;;;6.50;3.75;;;21.30;90.90;;;;;;5060111;28;20036;-89
2021/09/17 10:13:53;;;;;;;3.88;3.03;;;22.20;90.50;;;;;;5072865;28;20078;-89
2021/09/17 10:16:41;;;;;;;;;;;23.70;84.50;;;;;;5066084;28;20056;-88
2021/09/17 10:19:29;;;;;;;4.47;3.08;;;24.60;75.20;;;;;;5053242;28;20357;-90
2021/09/17 10:22:40;;;;;;;3.03;2.72;;;24.60;68.10;;;;;;5040295;28;20103;-88
2021/09/17 10:25:29;;;;;;;;;;;23.90;68.90;;;;;;5053193;28;20417;-88
2021/09/17 10:28:17;;;;;;;4.28;3.30;;;23.20;69.90;;;;;;5037483;28;19931;-88
2021/09/17 10:31:21;;;;;;;3.97;2.58;;;22.60;73.90;;;;;;5039687;28;20617;-88
2021/09/17 10:34:32;;;;;;;3.75;3.38;;;22.10;72.90;;;;;;5026634;28;20473;-88
2021/09/17 10:37:53;;;;;;;3.20;2.85;;;21.50;74.00;;;;;;5054806;28;20138;-88
2021/09/17 10:40:52;;;;;;;4.25;2.83;;;21.40;78.20;;;;;;5039540;28;20106;-88
2021/09/17 10:43:59;;;;;;;3.70;2.25;;;21.30;80.40;;;;;;5052117;28;20037;-88
2021/09/17 10:46:46;;;;;;;2.00;1.75;;;21.50;72.80;;;;;;5052782;28;20159;-88
2021/09/17 10:50:03;;;;;;;2.97;1.60;;;22.90;71.70;;;;;;5039761;28;20041;-87
2021/09/17 10:52:51;;;;;;;3.20;1.75;;;24.30;61.80;;;;;;5039467;28;20052;-90
2021/09/17 10:55:44;;;;;;;2.13;1.40;;;26.00;59.30;;;;;;5053460;28;20065;-89
2021/09/17 10:58:35;;;;;;;2.00;1.60;;;28.30;53.60;;;;;;5057987;28;20178;-91
2021/09/17 11:01:24;;;;;;;2.35;1.27;;;28.10;48.60;;;;;;5041133;28;20117;-89
2021/09/17 11:04:21;;;;;;;3.10;1.67;;;28.00;49.20;;;;;;5045568;28;20385;-89
2021/09/17 11:07:17;;;;;;;2.78;2.10;;;26.80;50.60;;;;;;5052838;28;20454;-88
2021/09/17 11:10:20;;;;;;;5.70;1.83;;;25.40;55.00;;;;;;5036877;28;20041;-88
2021/09/17 11:13:11;;;;;;;2.03;1.45;;;24.80;52.70;;;;;;5053225;28;20063;-89
2021/09/17 11:15:58;;;;;;;1.50;1.40;;;24.40;54.50;;;;;;5037734;28;20080;-89
2021/09/17 11:19:00;;;;;;;1.73;1.30;;;23.40;55.10;;;;;;5074844;28;20168;-89
2021/09/17 11:21:50;;;;;;;1.45;1.33;;;23.50;56.70;;;;;;5054771;28;20067;-88
2021/09/17 11:24:42;;;;;;;3.50;1.27;;;24.10;52.90;;;;;;5054669;28;20079;-88
2021/09/17 11:27:39;;;;;;;1.50;1.40;;;24.20;53.40;;;;;;5053188;28;20049;-88
2021/09/17 11:30:30;;;;;;;1.25;1.15;;;24.60;54.00;;;;;;5036133;28;20048;-90
2021/09/17 11:33:19;;;;;;;1.55;1.02;;;25.20;51.30;;;;;;5052297;28;20064;-89
2021/09/17 11:36:07;;;;;;;1.10;1.10;;;24.60;53.70;;;;;;5047387;28;20137;-89
2021/09/17 11:39:08;;;;;;;1.30;1.20;;;24.80;53.60;;;;;;5083359;28;20044;-89
2021/09/17 11:42:02;;;;;;;1.38;1.20;;;25.50;50.10;;;;;;5085392;28;20048;-90
2021/09/17 11:44:52;;;;;;;1.65;1.55;;;25.80;49.10;;;;;;5073738;28;20135;-88
2021/09/17 11:47:44;;;;;;;2.75;1.42;;;24.30;52.10;;;;;;5042058;28;20049;-89
2021/09/17 11:50:33;;;;;;;1.52;1.42;;;23.50;53.10;;;;;;5061028;28;20531;-88
2021/09/17 11:53:26;;;;;;;2.47;1.77;;;23.20;55.60;;;;;;5076699;28;20041;-88
2021/09/17 11:56:15;;;;;;;2.58;1.70;;;22.30;58.10;;;;;;5059685;28;20191;-88
2021/09/17 11:59:03;;;;;;;4.35;2.05;;;21.90;59.70;;;;;;5059828;28;20512;-90
2021/09/17 12:02:13;;;;;;;2.25;1.80;;;21.60;59.80;;;;;;5053068;28;20107;-90
2021/09/17 12:05:07;;;;;;;3.03;2.15;;;21.10;61.30;;;;;;5053187;28;20124;-88
2021/09/17 12:08:00;;;;;;;3.13;1.75;;;20.50;63.00;;;;;;5062392;28;20072;-88
2021/09/17 12:10:57;;;;;;;1.98;1.88;;;20.50;62.50;;;;;;5066757;28;20554;-89
2021/09/17 12:13:53;;;;;;;2.63;2.42;;;20.40;67.30;;;;;;5026823;28;20065;-90
2021/09/17 12:16:46;;;;;;;1.98;1.75;;;20.40;72.40;;;;;;5039461;28;20688;-90
2021/09/17 12:19:58;;;;;;;3.75;2.00;;;20.30;71.10;;;;;;5064128;28;20068;-89
2021/09/17 12:22:59;;;;;;;3.58;2.05;;;20.20;69.80;;;;;;5061960;28;20178;-88
2021/09/17 12:25:50;;;;;;;2.20;2.00;;;20.10;72.60;;;;;;5056505;28;20073;-88
2021/09/17 12:28:45;;;;;;;2.25;1.98;;;20.20;73.30;;;;;;5058649;28;20072;-90
2021/09/17 12:31:35;;;;;;;4.80;2.40;;;20.30;72.30;;;;;;5074809;28;20132;-91
2021/09/17 12:34:25;;;;;;;2.97;1.75;;;20.60;66.00;;;;;;5055189;28;20040;-87
2021/09/17 12:37:14;;;;;;;2.30;2.10;;;20.70;68.70;;;;;;5053118;28;20162;-90
2021/09/17 12:40:15;;;;;;;3.58;2.00;;;20.90;67.00;;;;;;5054648;28;20426;-87
2021/09/17 12:43:05;;;;;;;3.80;2.03;;;21.30;69.50;;;;;;5064556;28;20055;-89
2021/09/17 12:46:02;;;;;;;3.38;2.10;;;21.70;67.70;;;;;;5065576;28;20045;-86
2021/09/17 12:48:51;;;;;;;3.10;2.40;;;21.30;67.50;;;;;;5071637;28;20370;-85
2021/09/17 12:51:38;;;;;;;2.47;2.25;;;21.30;63.50;;;;;;5032810;28;20059;-89
2021/09/17 12:54:36;;;;;;;3.42;2.10;;;21.20;62.40;;;;;;5068372;28;20488;-91
2021/09/17 12:57:29;;;;;;;3.75;2.10;;;21.30;64.20;;;;;;5054969;28;20163;-88
2021/09/17 13:00:19;;;;;;;3.88;1.77;;;21.40;63.70;;;;;;5058012;28;20040;-88
2021/09/17 13:03:07;;;;;;;3.05;1.70;;;21.70;60.90;;;;;;5064502;28;20134;-88
2021/09/17 13:05:59;;;;;;;2.10;1.73;;;21.90;64.00;;;;;;5061425;28;20048;-89
2021/09/17 13:08:47;;;;;;;3.00;1.90;;;22.60;63.00;;;;;;5050903;28;20124;-90
2021/09/17 13:12:13;;;;;;;;;;;;;;;;;;;;;
2021/09/17 13:16:20;;;;;;;;;;;;;;;;;;;;;
2021/09/17 13:24:04;;;;;;;4.55;1.80;;;22.40;64.10;;;;;;4987057;28;20401;-91
2021/09/17 13:27:50;;;;;;;;;;;;;;;;;;;;;
2021/09/17 13:35:50;;;;;;;;;;;;;;;;;;;;;
2021/09/17 13:39:09;;;;;;;;;;;;;;;;;;;;;
2021/09/17 13:45:59;;;;;;;2.08;1.88;;;24.00;62.10;;;;;;4903874;29;20187;-94
2021/09/17 13:56:45;;;;;;;2.33;1.42;;;27.60;50.20;;;;;;4906289;28;20023;-89
2021/09/17 13:59:43;;;;;;;1.88;1.30;;;29.40;50.30;;;;;;4984537;28;20136;-89
2021/09/17 14:02:30;;;;;;;2.85;1.58;;;30.60;45.00;;;;;;4996576;28;20085;-90
2021/09/17 14:05:20;;;;;;;3.22;1.70;;;31.00;41.20;;;;;;4984849;28;20129;-88
2021/09/17 14:08:15;;;;;;;1.70;1.30;;;32.60;38.90;;;;;;5002502;28;20133;-90
2021/09/17 14:11:07;;;;;;;2.85;1.23;;;32.40;41.30;;;;;;5016646;28;20065;-90
2021/09/17 14:13:54;;;;;;;2.17;1.33;;;32.90;36.20;;;;;;5045938;28;20055;-90
2021/09/17 14:16:49;;;;;;;3.22;1.20;;;32.00;38.90;;;;;;5034119;28;20095;-90
2021/09/17 14:19:37;;;;;;;1.42;1.10;;;31.50;40.80;;;;;;5058933;28;20048;-90
2021/09/17 14:22:30;;;;;;;3.42;1.27;;;32.00;40.10;;;;;;5083118;28;20070;-90
2021/09/17 14:25:22;;;;;;;1.85;1.10;;;31.40;40.90;;;;;;5086277;28;20052;-90
2021/09/17 14:28:09;;;;;;;2.15;1.80;;;29.30;42.70;;;;;;5047251;28;20138;-89
2021/09/17 14:30:57;;;;;;;3.17;1.50;;;27.20;46.80;;;;;;5065310;28;20075;-90
2021/09/17 14:33:44;;;;;;;2.85;1.90;;;25.60;51.00;;;;;;5063435;28;20052;-90
2021/09/17 14:36:37;;;;;;;3.85;1.80;;;24.00;54.70;;;;;;5053948;28;20070;-90
2021/09/17 14:39:27;;;;;;;3.25;2.03;;;22.70;58.00;;;;;;5060625;28;20067;-88
2021/09/17 14:42:14;;;;;;;1.92;1.70;;;21.90;61.00;;;;;;5057108;28;20036;-90
2021/09/17 14:45:02;;;;;;;7.18;2.40;;;21.40;63.80;;;;;;5048077;28;20330;-91
2021/09/17 14:47:49;;;;;;;8.18;2.30;;;20.80;66.80;;;;;;5041779;28;20044;-89
2021/09/17 14:50:38;;;;;;;4.35;1.95;;;20.50;68.70;;;;;;5050764;28;20078;-89
2021/09/17 14:53:25;;;;;;;3.97;2.60;;;20.30;70.00;;;;;;5059118;28;20045;-91
2021/09/17 14:56:15;;;;;;;7.57;2.28;;;19.90;73.60;;;;;;5063782;28;20725;-90
2021/09/17 14:59:06;;;;;;;3.78;2.55;;;19.80;76.60;;;;;;5059622;28;20068;-90
2021/09/17 15:01:54;;;;;;;3.08;2.15;;;19.50;78.60;;;;;;5051393;28;20056;-91
2021/09/17 15:04:42;;;;;;;3.97;2.95;;;19.40;78.70;;;;;;5043807;28;20721;-91
2021/09/17 15:07:33;;;;;;;3.53;2.50;;;19.30;77.00;;;;;;5055781;28;20045;-91